createdAt,value
2023-02-23T00:01:46.147Z,5.64
2023-02-23T00:04:15.698Z,5.66
2023-02-23T00:06:45.407Z,5.72
2023-02-23T00:09:22.962Z,5.73
2023-02-23T00:11:56.489Z,5.74
2023-02-23T00:14:29.079Z,5.74
2023-02-23T00:16:59.990Z,5.77
2023-02-23T00:19:33.092Z,5.77
2023-02-23T00:22:03.360Z,5.77
2023-02-23T00:24:32.694Z,5.75
2023-02-23T00:27:06.234Z,5.74
2023-02-23T00:29:40.742Z,5.75
2023-02-23T00:32:10.642Z,5.78
2023-02-23T00:34:41.749Z,5.80
2023-02-23T00:37:12.312Z,5.83
2023-02-23T00:39:41.847Z,5.83
2023-02-23T00:42:13.648Z,5.87
2023-02-23T00:44:43.327Z,5.96
2023-02-23T00:47:12.968Z,6.01
2023-02-23T00:49:44.953Z,6.09
2023-02-23T00:52:15.447Z,6.14
2023-02-23T00:54:45.043Z,6.14
2023-02-23T00:57:18.259Z,6.17
2023-02-23T00:59:47.842Z,6.14
2023-02-23T01:02:18.351Z,6.17
2023-02-23T01:04:47.865Z,6.17
2023-02-23T01:07:17.354Z,6.21
2023-02-23T01:09:46.859Z,6.24
2023-02-23T01:12:17.623Z,6.24
2023-02-23T01:14:47.696Z,6.22
2023-02-23T01:17:17.893Z,6.19
2023-02-23T01:19:47.326Z,6.26
2023-02-23T01:22:16.808Z,6.23
2023-02-23T01:24:46.852Z,6.22
2023-02-23T01:27:17.616Z,6.20
2023-02-23T01:29:47.319Z,6.21
2023-02-23T01:32:17.415Z,6.20
2023-02-23T01:34:47.186Z,6.19
2023-02-23T01:37:16.689Z,6.24
2023-02-23T01:39:46.127Z,6.21
2023-02-23T01:42:17.281Z,6.24
2023-02-23T01:45:27.562Z,6.17
2023-02-23T01:48:02.838Z,6.16
2023-02-23T01:50:43.889Z,6.13
2023-02-23T01:53:17.197Z,6.12
2023-02-23T01:55:49.806Z,6.13
2023-02-23T01:58:23.562Z,6.20
2023-02-23T02:00:57.439Z,6.21
2023-02-23T02:03:34.758Z,6.26
2023-02-23T02:06:09.754Z,6.30
2023-02-23T02:08:44.838Z,6.32
2023-02-23T02:11:26.048Z,6.35
2023-02-23T02:14:02.604Z,6.34
2023-02-23T02:17:05.217Z,6.34
2023-02-23T02:21:06.289Z,6.35
2023-02-23T02:24:37.275Z,6.31
2023-02-23T02:27:28.772Z,6.24
2023-02-23T02:30:44.538Z,6.16
2023-02-23T02:34:12.829Z,6.10
2023-02-23T02:37:35.400Z,6.10
2023-02-23T02:40:18.583Z,6.04
2023-02-23T02:43:09.032Z,6.00
2023-02-23T02:45:52.379Z,5.98
2023-02-23T02:48:41.783Z,5.95
2023-02-23T02:51:23.321Z,5.93
2023-02-23T02:54:06.909Z,6.02
2023-02-23T02:56:42.562Z,6.09
2023-02-23T02:59:33.964Z,6.21
2023-02-23T03:02:23.517Z,6.26
2023-02-23T03:05:10.372Z,6.24
2023-02-23T03:08:07.373Z,6.22
2023-02-23T03:11:06.372Z,6.15
2023-02-23T03:14:06.914Z,6.07
2023-02-23T03:17:08.007Z,5.99
2023-02-23T03:20:07.323Z,5.97
2023-02-23T03:23:06.117Z,5.92
2023-02-23T03:26:07.891Z,5.95
2023-02-23T03:29:06.595Z,5.95
2023-02-23T03:32:02.731Z,5.92
2023-02-23T03:34:59.017Z,5.91
2023-02-23T03:37:55.556Z,5.88
2023-02-23T03:40:52.740Z,5.86
2023-02-23T03:43:48.268Z,5.78
2023-02-23T03:46:39.820Z,5.72
2023-02-23T03:49:30.415Z,5.66
2023-02-23T03:52:27.463Z,5.59
2023-02-23T03:55:21.968Z,5.56
2023-02-23T03:58:14.020Z,5.53
2023-02-23T04:01:08.065Z,5.46
2023-02-23T04:04:01.024Z,5.34
2023-02-23T04:06:55.267Z,5.29
2023-02-23T04:09:42.311Z,5.27
2023-02-23T04:12:38.355Z,5.25
2023-02-23T04:15:13.866Z,5.25
2023-02-23T04:17:45.631Z,5.26
2023-02-23T04:20:16.231Z,5.18
2023-02-23T04:22:45.707Z,5.13
2023-02-23T04:25:17.569Z,5.14
2023-02-23T04:27:47.018Z,5.19
2023-02-23T04:30:17.230Z,5.21
2023-02-23T04:32:48.112Z,5.20
2023-02-23T04:35:17.697Z,5.17
2023-02-23T04:37:47.209Z,5.15
2023-02-23T04:40:16.870Z,5.09
2023-02-23T04:42:46.325Z,5.06
2023-02-23T04:45:16.054Z,5.03
2023-02-23T04:47:47.151Z,4.99
2023-02-23T04:50:17.398Z,5.05
2023-02-23T04:52:47.551Z,5.12
2023-02-23T04:55:22.396Z,5.16
2023-02-23T04:57:52.148Z,5.17
2023-02-23T05:00:22.133Z,5.20
2023-02-23T05:02:52.925Z,5.21
2023-02-23T05:05:22.566Z,5.27
2023-02-23T05:07:52.011Z,5.31
2023-02-23T05:10:21.690Z,5.32
2023-02-23T05:12:51.216Z,5.36
2023-02-23T05:15:21.094Z,5.42
2023-02-23T05:17:51.919Z,5.59
2023-02-23T05:20:21.626Z,5.67
2023-02-23T05:22:51.210Z,5.83
2023-02-23T05:25:20.776Z,5.92
2023-02-23T05:27:50.809Z,6.05
2023-02-23T05:30:20.373Z,6.05
2023-02-23T05:32:49.741Z,6.11
2023-02-23T05:35:20.667Z,6.13
2023-02-23T05:37:50.117Z,6.11
2023-02-23T05:40:20.499Z,6.07
2023-02-23T05:42:49.999Z,6.03
2023-02-23T05:45:19.514Z,5.96
2023-02-23T05:47:49.911Z,5.95
2023-02-23T05:50:20.974Z,5.95
2023-02-23T05:52:50.418Z,5.92
2023-02-23T05:55:19.969Z,5.91
2023-02-23T05:57:50.672Z,5.98
2023-02-23T06:00:21.361Z,6.00
2023-02-23T06:02:52.375Z,5.99
2023-02-23T06:05:23.136Z,5.98
2023-02-23T06:07:53.292Z,5.95
2023-02-23T06:10:22.687Z,5.94
2023-02-23T06:12:52.086Z,5.92
2023-02-23T06:15:21.474Z,5.91
2023-02-23T06:17:50.861Z,5.90
2023-02-23T06:20:22.728Z,5.90
2023-02-23T06:22:52.166Z,5.89
2023-02-23T06:25:21.729Z,5.91
2023-02-23T06:27:51.425Z,5.90
2023-02-23T06:30:21.259Z,5.91
2023-02-23T06:32:50.943Z,5.90
2023-02-23T06:35:25.589Z,5.96
2023-02-23T06:37:55.375Z,5.96
2023-02-23T06:40:25.266Z,5.95
2023-02-23T06:42:54.756Z,5.97
2023-02-23T06:45:24.199Z,5.99
2023-02-23T06:47:53.738Z,6.04
2023-02-23T06:50:24.517Z,6.07
2023-02-23T06:52:53.925Z,6.07
2023-02-23T06:55:23.509Z,6.08
2023-02-23T06:57:54.253Z,6.07
2023-02-23T07:00:24.854Z,6.20
2023-02-23T07:02:54.414Z,6.25
